Time;durP1;ratioP1;P1;durP2;ratioP2;P2;SDS_P1;SDS_P2;PMS_P1;PMS_P2;Temp;Humidity;BMP_temperature;BMP_pressure;BME280_temperature;BME280_humidity;BME280_pressure;Samples;Min_cycle;Max_cycle;Signal;HPM_P1;HPM_P2
2021/09/29 00:00:37;;;;;;;27.37;13.45;;;;;;;;;;4440723;32;21846;-55
2021/09/29 00:03:02;;;;;;;18.05;14.48;;;;;;;;;;4441041;32;20290;-55
2021/09/29 00:05:28;;;;;;;19.40;14.15;;;;;;;;;;4432755;32;20236;-55
2021/09/29 00:07:53;;;;;;;16.80;13.50;;;;;;;;;;4432414;32;20662;-55
2021/09/29 00:10:19;;;;;;;20.30;14.25;;;;;;;;;;4439327;32;20268;-55
2021/09/29 00:12:44;;;;;;;26.33;15.05;;;;;;;;;;4447516;32;20714;-55
2021/09/29 00:15:15;;;;;;;22.45;14.10;;;;;;;;;;4446406;32;20427;-55
2021/09/29 00:17:44;;;;;;;18.52;13.60;;;;;;;;;;4448055;32;20220;-55
2021/09/29 00:20:11;;;;;;;19.30;14.87;;;;;;;;;;4447564;32;20250;-55
2021/09/29 00:22:37;;;;;;;21.05;14.23;;;;;;;;;;4447659;32;20238;-55
2021/09/29 00:25:05;;;;;;;24.60;14.52;;;;;;;;;;4447942;32;20305;-55
2021/09/29 00:27:30;;;;;;;23.62;13.48;;;;;;;;;;4447885;32;20725;-54
2021/09/29 00:30:00;;;;;;;28.33;14.75;;;;;;;;;;4448045;32;20271;-56
2021/09/29 00:32:25;;;;;;;30.55;18.37;;;;;;;;;;4447494;32;20248;-56
2021/09/29 00:34:51;;;;;;;32.38;18.42;;;;;;;;;;4448172;32;20687;-56
2021/09/29 00:37:16;;;;;;;33.15;18.23;;;;;;;;;;4447857;32;20273;-55
2021/09/29 00:39:42;;;;;;;23.77;15.45;;;;;;;;;;4448390;32;20343;-55
2021/09/29 00:42:08;;;;;;;23.17;14.30;;;;;;;;;;4447997;32;20328;-54
2021/09/29 00:44:33;;;;;;;18.87;15.23;;;;;;;;;;4448203;32;20306;-54
2021/09/29 00:46:59;;;;;;;29.67;15.90;;;;;;;;;;4448057;32;20344;-54
2021/09/29 00:49:24;;;;;;;23.73;14.65;;;;;;;;;;4447967;32;20691;-55
2021/09/29 00:51:51;;;;;;;17.00;13.82;;;;;;;;;;4448019;32;20313;-55
2021/09/29 00:54:18;;;;;;;21.45;13.52;;;;;;;;;;4447808;32;20251;-55
2021/09/29 00:56:46;;;;;;;21.98;14.68;;;;;;;;;;4447855;32;20732;-55
2021/09/29 00:59:11;;;;;;;23.30;13.70;;;;;;;;;;4450610;32;20232;-55
2021/09/29 01:01:37;;;;;;;19.30;13.88;;;;;;;;;;4450172;32;20609;-53
2021/09/29 01:04:02;;;;;;;16.42;13.18;;;;;;;;;;4450596;32;20279;-54
2021/09/29 01:06:43;;;;;;;19.02;14.85;;;;;;;;;;4450898;32;20285;-54
2021/09/29 01:09:16;;;;;;;16.55;14.13;;;;;;;;;;4450455;32;20192;-54
2021/09/29 01:12:02;;;;;;;16.37;13.32;;;;;;;;;;4451032;32;20256;-54
2021/09/29 01:14:54;;;;;;;16.23;13.60;;;;;;;;;;4450850;32;20188;-54
2021/09/29 01:17:20;;;;;;;12.95;11.07;;;;;;;;;;4450671;32;20752;-54
2021/09/29 01:20:22;;;;;;;13.23;11.77;;;;;;;;;;4450589;32;20208;-55
2021/09/29 01:23:06;;;;;;;19.92;13.10;;;;;;;;;;4449943;32;20289;-54
2021/09/29 01:25:53;;;;;;;16.90;12.27;;;;;;;;;;4450631;32;20243;-53
2021/09/29 01:28:23;;;;;;;18.62;13.38;;;;;;;;;;4450887;32;20226;-54
2021/09/29 01:30:49;;;;;;;15.80;12.55;;;;;;;;;;4450672;32;20250;-55
2021/09/29 01:33:16;;;;;;;17.12;13.32;;;;;;;;;;4442333;32;20280;-56
2021/09/29 01:35:42;;;;;;;27.37;13.88;;;;;;;;;;4442112;32;20228;-54
2021/09/29 01:38:08;;;;;;;15.65;13.62;;;;;;;;;;4450015;32;20280;-55
2021/09/29 01:40:34;;;;;;;19.75;12.73;;;;;;;;;;4450522;32;20753;-54
2021/09/29 01:42:59;;;;;;;16.10;13.77;;;;;;;;;;4449964;32;20306;-54
2021/09/29 01:45:25;;;;;;;15.93;13.57;;;;;;;;;;4450194;32;20621;-53
2021/09/29 01:47:50;;;;;;;23.20;15.00;;;;;;;;;;4450100;32;20330;-56
2021/09/29 01:50:23;;;;;;;22.00;14.63;;;;;;;;;;4449964;32;20396;-54
2021/09/29 01:52:50;;;;;;;19.98;14.57;;;;;;;;;;4449692;32;20196;-54
2021/09/29 01:55:19;;;;;;;20.60;14.48;;;;;;;;;;4449710;32;20762;-54
2021/09/29 01:57:46;;;;;;;20.65;14.10;;;;;;;;;;4450088;32;20615;-55
2021/09/29 02:00:12;;;;;;;28.15;15.65;;;;;;;;;;4449791;32;20208;-55
2021/09/29 02:02:42;;;;;;;18.15;13.50;;;;;;;;;;4449225;32;20217;-55
2021/09/29 02:05:08;;;;;;;23.67;17.05;;;;;;;;;;4449725;32;20205;-55
2021/09/29 02:07:34;;;;;;;31.23;15.85;;;;;;;;;;4449503;32;20284;-55
2021/09/29 02:09:59;;;;;;;27.45;18.00;;;;;;;;;;4449464;32;20318;-55
2021/09/29 02:12:26;;;;;;;34.97;19.50;;;;;;;;;;4449465;32;20256;-55
2021/09/29 02:14:51;;;;;;;32.50;17.35;;;;;;;;;;4449412;32;20529;-55
2021/09/29 02:17:20;;;;;;;36.70;18.62;;;;;;;;;;4449499;32;20220;-55
2021/09/29 02:19:46;;;;;;;33.53;21.00;;;;;;;;;;4449984;32;20200;-55
2021/09/29 02:22:14;;;;;;;31.75;20.05;;;;;;;;;;4449410;32;20596;-55
2021/09/29 02:24:40;;;;;;;36.25;20.90;;;;;;;;;;4449697;32;20225;-55
2021/09/29 02:27:05;;;;;;;33.00;19.80;;;;;;;;;;4449547;32;20281;-56
2021/09/29 02:29:31;;;;;;;24.73;17.83;;;;;;;;;;4449644;32;20267;-55
2021/09/29 02:31:56;;;;;;;26.20;16.90;;;;;;;;;;4449206;32;20427;-55
2021/09/29 02:34:22;;;;;;;24.45;16.62;;;;;;;;;;4449447;32;20279;-55
2021/09/29 02:36:48;;;;;;;30.95;16.90;;;;;;;;;;4449517;32;20627;-55
2021/09/29 02:39:13;;;;;;;23.25;16.50;;;;;;;;;;4449296;32;20556;-55
2021/09/29 02:41:39;;;;;;;38.28;17.73;;;;;;;;;;4449305;32;20267;-54
2021/09/29 02:44:08;;;;;;;29.25;18.05;;;;;;;;;;4449277;32;20392;-55
2021/09/29 02:46:36;;;;;;;28.02;18.35;;;;;;;;;;4449133;32;20326;-55
2021/09/29 02:49:02;;;;;;;25.65;17.70;;;;;;;;;;4449075;32;20208;-55
2021/09/29 02:51:28;;;;;;;30.10;17.15;;;;;;;;;;4449053;32;20236;-55
2021/09/29 02:53:53;;;;;;;26.62;16.87;;;;;;;;;;4449117;32;20364;-55
2021/09/29 02:56:19;;;;;;;21.87;16.15;;;;;;;;;;4449151;32;20672;-54
2021/09/29 02:58:44;;;;;;;21.52;15.23;;;;;;;;;;4449385;32;20631;-54
2021/09/29 03:01:09;;;;;;;25.23;15.57;;;;;;;;;;4448923;32;20248;-54
2021/09/29 03:03:35;;;;;;;20.98;15.13;;;;;;;;;;4449571;32;20284;-54
2021/09/29 03:06:00;;;;;;;22.67;15.88;;;;;;;;;;4448967;32;20274;-54
2021/09/29 03:08:26;;;;;;;17.02;14.32;;;;;;;;;;4448858;32;20342;-55
2021/09/29 03:10:51;;;;;;;22.10;14.13;;;;;;;;;;4448542;32;20527;-54
2021/09/29 03:13:17;;;;;;;17.55;14.45;;;;;;;;;;4448790;32;20297;-54
2021/09/29 03:15:42;;;;;;;16.62;14.20;;;;;;;;;;4448972;32;20305;-54
2021/09/29 03:18:08;;;;;;;21.58;15.68;;;;;;;;;;4448612;32;20275;-54
2021/09/29 03:20:34;;;;;;;16.87;14.00;;;;;;;;;;4447967;32;20445;-54
2021/09/29 03:22:59;;;;;;;18.90;15.15;;;;;;;;;;4448435;32;20309;-55
2021/09/29 03:25:25;;;;;;;28.87;22.02;;;;;;;;;;4448473;32;20324;-54
2021/09/29 03:27:52;;;;;;;25.23;20.37;;;;;;;;;;4448679;32;20408;-56
2021/09/29 03:30:18;;;;;;;19.73;16.40;;;;;;;;;;4448504;32;20723;-54
2021/09/29 03:32:43;;;;;;;19.62;15.52;;;;;;;;;;4445054;32;20333;-54
2021/09/29 03:35:10;;;;;;;16.90;14.70;;;;;;;;;;4448181;32;20324;-55
2021/09/29 03:37:36;;;;;;;16.33;13.98;;;;;;;;;;4448073;32;20521;-54
2021/09/29 03:40:03;;;;;;;25.00;15.82;;;;;;;;;;4447937;32;20284;-54
2021/09/29 03:42:29;;;;;;;22.92;14.15;;;;;;;;;;4447975;32;20230;-54
2021/09/29 03:44:54;;;;;;;18.25;14.30;;;;;;;;;;4448279;32;20271;-54
2021/09/29 03:47:20;;;;;;;16.23;13.15;;;;;;;;;;4447913;32;20258;-54
2021/09/29 03:49:45;;;;;;;20.40;14.75;;;;;;;;;;4448032;32;20362;-54
2021/09/29 03:52:10;;;;;;;20.50;14.55;;;;;;;;;;4447882;32;20318;-54
2021/09/29 03:54:36;;;;;;;25.50;13.73;;;;;;;;;;4447881;32;20688;-54
2021/09/29 03:57:02;;;;;;;19.40;14.38;;;;;;;;;;4448007;32;20379;-54
2021/09/29 03:59:27;;;;;;;22.17;13.93;;;;;;;;;;4448156;32;20272;-56
2021/09/29 04:01:53;;;;;;;19.12;13.62;;;;;;;;;;4439988;32;20594;-55
2021/09/29 04:04:19;;;;;;;15.73;13.32;;;;;;;;;;4433202;32;20298;-56
2021/09/29 04:06:45;;;;;;;14.95;13.45;;;;;;;;;;4444339;32;20307;-56
2021/09/29 04:09:11;;;;;;;18.10;13.30;;;;;;;;;;4447641;32;20239;-57
2021/09/29 04:11:38;;;;;;;17.67;13.75;;;;;;;;;;4447932;32;20252;-56
2021/09/29 04:14:03;;;;;;;21.00;14.07;;;;;;;;;;4447559;32;20267;-56
2021/09/29 04:16:29;;;;;;;19.50;13.20;;;;;;;;;;4447832;32;20522;-54
2021/09/29 04:18:54;;;;;;;15.55;13.18;;;;;;;;;;4447509;32;20290;-55
2021/09/29 04:21:20;;;;;;;22.62;14.07;;;;;;;;;;4447400;32;20746;-55
2021/09/29 04:23:45;;;;;;;18.27;14.07;;;;;;;;;;4447352;32;20275;-54
2021/09/29 04:26:11;;;;;;;17.00;13.68;;;;;;;;;;4447704;32;20300;-54
2021/09/29 04:28:36;;;;;;;19.35;13.50;;;;;;;;;;4448210;32;20197;-54
2021/09/29 04:31:03;;;;;;;22.30;14.13;;;;;;;;;;4447961;32;20277;-54
2021/09/29 04:33:29;;;;;;;20.20;13.65;;;;;;;;;;4450798;32;20245;-55
2021/09/29 04:35:55;;;;;;;20.95;14.40;;;;;;;;;;4450594;32;20262;-55
2021/09/29 04:38:21;;;;;;;19.50;14.65;;;;;;;;;;4450785;32;20280;-55
2021/09/29 04:40:47;;;;;;;24.63;16.55;;;;;;;;;;4450569;32;20319;-55
2021/09/29 04:43:13;;;;;;;19.17;14.85;;;;;;;;;;4450586;32;20271;-55
2021/09/29 04:45:38;;;;;;;19.92;14.65;;;;;;;;;;4449923;32;20614;-55
2021/09/29 04:48:04;;;;;;;14.43;12.32;;;;;;;;;;4450166;32;20386;-55
2021/09/29 04:50:30;;;;;;;25.23;14.25;;;;;;;;;;4450169;32;20216;-55
2021/09/29 04:52:56;;;;;;;18.05;14.00;;;;;;;;;;4450338;32;20682;-57
2021/09/29 04:55:22;;;;;;;33.80;14.95;;;;;;;;;;4450185;32;20262;-55
2021/09/29 04:57:47;;;;;;;22.77;16.87;;;;;;;;;;4450330;32;20245;-56
2021/09/29 05:00:13;;;;;;;21.98;14.95;;;;;;;;;;4450156;32;20343;-55
2021/09/29 05:02:44;;;;;;;19.75;14.10;;;;;;;;;;4449116;32;20217;-55
2021/09/29 05:05:09;;;;;;;29.15;16.17;;;;;;;;;;4449964;32;20255;-55
2021/09/29 05:07:35;;;;;;;21.90;15.38;;;;;;;;;;4449461;32;20213;-55
2021/09/29 05:10:04;;;;;;;20.42;16.35;;;;;;;;;;4449521;32;20275;-55
2021/09/29 05:12:31;;;;;;;20.15;15.05;;;;;;;;;;4448277;32;20252;-55
2021/09/29 05:14:58;;;;;;;20.17;14.60;;;;;;;;;;4449473;32;20284;-56
2021/09/29 05:17:25;;;;;;;29.45;16.73;;;;;;;;;;4449685;32;20759;-55
2021/09/29 05:19:51;;;;;;;23.73;14.00;;;;;;;;;;4449579;32;20244;-55
2021/09/29 05:22:16;;;;;;;24.98;16.17;;;;;;;;;;4449475;32;20247;-55
2021/09/29 05:24:42;;;;;;;25.77;17.27;;;;;;;;;;4449273;32;20309;-56
2021/09/29 05:27:08;;;;;;;19.45;14.73;;;;;;;;;;4449105;32;20225;-55
2021/09/29 05:29:36;;;;;;;20.20;15.50;;;;;;;;;;4449317;32;20601;-56
2021/09/29 05:32:02;;;;;;;23.75;17.02;;;;;;;;;;4449214;32;20228;-55
2021/09/29 05:34:28;;;;;;;23.95;16.92;;;;;;;;;;4434019;32;20526;-55
2021/09/29 05:36:54;;;;;;;21.00;16.80;;;;;;;;;;4433581;32;20425;-55
2021/09/29 05:39:19;;;;;;;29.95;15.85;;;;;;;;;;4434255;32;20307;-56
2021/09/29 05:41:46;;;;;;;31.87;17.87;;;;;;;;;;4433519;32;20263;-56
2021/09/29 05:44:11;;;;;;;32.03;17.23;;;;;;;;;;4432245;32;20240;-55
2021/09/29 05:46:36;;;;;;;41.50;18.73;;;;;;;;;;4433609;32;20221;-55
2021/09/29 05:49:03;;;;;;;29.50;18.85;;;;;;;;;;4440117;32;20282;-56
2021/09/29 05:51:28;;;;;;;22.20;14.65;;;;;;;;;;4448614;32;20236;-55
2021/09/29 05:53:53;;;;;;;28.80;17.80;;;;;;;;;;4433145;32;20463;-55
2021/09/29 05:56:19;;;;;;;19.80;16.12;;;;;;;;;;4448172;32;20317;-54
2021/09/29 05:58:45;;;;;;;24.35;17.62;;;;;;;;;;4447121;32;20256;-55
2021/09/29 06:01:11;;;;;;;22.08;15.00;;;;;;;;;;4447492;32;20263;-54
2021/09/29 06:03:36;;;;;;;26.48;17.95;;;;;;;;;;4447374;32;20295;-56
2021/09/29 06:06:02;;;;;;;22.77;17.77;;;;;;;;;;4447219;32;20849;-54
2021/09/29 06:08:27;;;;;;;21.00;15.68;;;;;;;;;;4447480;32;20340;-56
2021/09/29 06:10:53;;;;;;;33.75;16.98;;;;;;;;;;4447849;32;20285;-56
2021/09/29 06:13:18;;;;;;;17.98;13.68;;;;;;;;;;4447395;32;20362;-57
2021/09/29 06:15:45;;;;;;;18.10;14.95;;;;;;;;;;4446840;32;20351;-55
2021/09/29 06:18:14;;;;;;;19.55;14.35;;;;;;;;;;4449239;32;20741;-55
2021/09/29 06:20:47;;;;;;;25.30;14.83;;;;;;;;;;4449117;32;20212;-55
2021/09/29 06:23:13;;;;;;;20.88;13.40;;;;;;;;;;4448831;32;20251;-55
2021/09/29 06:25:39;;;;;;;19.52;14.05;;;;;;;;;;4449371;32;20244;-55
2021/09/29 06:28:05;;;;;;;20.85;15.68;;;;;;;;;;4448895;32;20462;-56
2021/09/29 06:30:30;;;;;;;28.62;15.55;;;;;;;;;;4449117;32;20228;-55
2021/09/29 06:32:56;;;;;;;19.33;16.05;;;;;;;;;;4444232;32;20369;-57
2021/09/29 06:35:21;;;;;;;25.95;19.90;;;;;;;;;;4448637;32;20228;-57
2021/09/29 06:37:47;;;;;;;22.08;17.98;;;;;;;;;;4448345;32;20295;-55
2021/09/29 06:40:16;;;;;;;20.92;15.63;;;;;;;;;;4448581;32;20256;-56
2021/09/29 06:42:41;;;;;;;18.27;15.40;;;;;;;;;;4448386;32;20196;-55
2021/09/29 06:45:09;;;;;;;23.90;15.30;;;;;;;;;;4448584;32;20451;-54
2021/09/29 06:47:35;;;;;;;28.58;16.10;;;;;;;;;;4448225;32;20333;-57
2021/09/29 06:50:01;;;;;;;19.75;13.45;;;;;;;;;;4447790;32;20208;-55
2021/09/29 06:52:26;;;;;;;17.08;14.13;;;;;;;;;;4448386;32;20263;-55
2021/09/29 06:54:52;;;;;;;22.67;14.40;;;;;;;;;;4447423;32;20804;-55
2021/09/29 06:57:17;;;;;;;20.33;14.75;;;;;;;;;;4448036;32;20306;-55
2021/09/29 06:59:43;;;;;;;18.80;15.07;;;;;;;;;;4447739;32;20276;-55
2021/09/29 07:02:09;;;;;;;18.73;14.23;;;;;;;;;;4447574;32;20380;-56
2021/09/29 07:04:34;;;;;;;23.42;14.18;;;;;;;;;;4447632;32;20283;-56
2021/09/29 07:07:00;;;;;;;19.02;13.43;;;;;;;;;;4447637;32;20280;-56
2021/09/29 07:09:25;;;;;;;17.65;14.20;;;;;;;;;;4447521;32;20259;-56
2021/09/29 07:11:50;;;;;;;18.42;14.27;;;;;;;;;;4448107;32;20254;-56
2021/09/29 07:14:16;;;;;;;18.87;15.02;;;;;;;;;;4448149;32;20307;-55
2021/09/29 07:16:41;;;;;;;31.12;15.18;;;;;;;;;;4447845;32;20284;-55
2021/09/29 07:19:07;;;;;;;20.33;14.73;;;;;;;;;;4447898;32;20623;-55
2021/09/29 07:21:32;;;;;;;22.75;16.98;;;;;;;;;;4447643;32;20339;-55
2021/09/29 07:23:59;;;;;;;24.75;17.85;;;;;;;;;;4447055;32;20714;-57
2021/09/29 07:26:25;;;;;;;22.00;18.48;;;;;;;;;;4446485;32;20331;-56
2021/09/29 07:28:51;;;;;;;21.52;17.50;;;;;;;;;;4447588;32;20287;-56
2021/09/29 07:31:17;;;;;;;25.70;16.37;;;;;;;;;;4447582;32;20286;-56
2021/09/29 07:33:43;;;;;;;20.50;15.45;;;;;;;;;;4447387;32;20282;-56
2021/09/29 07:36:09;;;;;;;27.10;17.48;;;;;;;;;;4447429;32;20229;-56
2021/09/29 07:38:35;;;;;;;31.65;15.80;;;;;;;;;;4447675;32;20295;-56
2021/09/29 07:41:01;;;;;;;19.58;15.45;;;;;;;;;;4447728;32;20270;-56
2021/09/29 07:43:27;;;;;;;19.75;15.70;;;;;;;;;;4446559;32;20684;-55
2021/09/29 07:45:52;;;;;;;23.58;14.73;;;;;;;;;;4446378;32;20220;-54
2021/09/29 07:48:18;;;;;;;19.37;15.38;;;;;;;;;;4445841;32;20306;-54
2021/09/29 07:50:43;;;;;;;26.70;19.27;;;;;;;;;;4447460;32;20298;-54
2021/09/29 07:53:09;;;;;;;18.87;15.23;;;;;;;;;;4447273;32;20298;-55
2021/09/29 07:55:34;;;;;;;25.25;16.35;;;;;;;;;;4447363;32;20992;-55
2021/09/29 07:58:00;;;;;;;24.75;16.80;;;;;;;;;;4447507;32;20269;-55
2021/09/29 08:00:25;;;;;;;21.60;15.65;;;;;;;;;;4444955;32;20276;-55
2021/09/29 08:02:52;;;;;;;20.73;15.88;;;;;;;;;;4445749;32;20216;-55
2021/09/29 08:05:19;;;;;;;16.60;14.45;;;;;;;;;;4446019;32;20898;-55
2021/09/29 08:07:47;;;;;;;19.80;15.98;;;;;;;;;;4446982;32;20306;-56
2021/09/29 08:10:13;;;;;;;16.80;14.00;;;;;;;;;;4447035;32;20204;-55
2021/09/29 08:12:38;;;;;;;23.98;14.68;;;;;;;;;;4447124;32;20216;-54
2021/09/29 08:15:11;;;;;;;14.45;12.85;;;;;;;;;;4447193;32;20295;-55
2021/09/29 08:17:37;;;;;;;19.85;14.87;;;;;;;;;;4446967;32;20550;-55
2021/09/29 08:20:03;;;;;;;17.98;14.98;;;;;;;;;;4446629;32;20325;-56
2021/09/29 08:22:29;;;;;;;22.05;15.25;;;;;;;;;;4446951;32;20201;-56
2021/09/29 08:38:29;;;;;;;21.00;16.20;;;;;;;;;;4447204;32;20715;-54
2021/09/29 08:43:35;;;;;;;15.32;12.10;;;;;;;;;;4446889;32;20255;-55
2021/09/29 08:46:08;;;;;;;17.98;14.07;;;;;;;;;;4446578;32;20248;-55
2021/09/29 08:48:46;;;;;;;17.52;13.55;;;;;;;;;;4435027;32;20658;-58
2021/09/29 09:18:27;;;;;;;18.02;13.70;;;;;;;;;;4446650;32;20380;-56
2021/09/29 09:21:02;;;;;;;22.67;14.82;;;;;;;;;;4447507;32;20256;-55
2021/09/29 09:23:42;;;;;;;21.45;14.68;;;;;;;;;;4449534;32;20215;-55
2021/09/29 09:26:13;;;;;;;16.83;14.35;;;;;;;;;;4448811;32;20591;-55
2021/09/29 09:28:39;;;;;;;16.67;13.10;;;;;;;;;;4448986;32;20278;-56
2021/09/29 09:31:19;;;;;;;16.75;14.48;;;;;;;;;;4447357;32;20396;-56
2021/09/29 09:33:52;;;;;;;17.73;14.50;;;;;;;;;;4449071;32;20612;-54
2021/09/29 09:36:37;;;;;;;19.27;14.68;;;;;;;;;;4448630;32;20221;-55
2021/09/29 09:39:09;;;;;;;21.73;17.70;;;;;;;;;;4448641;32;20349;-55
2021/09/29 09:41:35;;;;;;;17.80;14.80;;;;;;;;;;4447315;32;20315;-54
2021/09/29 09:44:03;;;;;;;22.20;14.68;;;;;;;;;;4448637;32;20317;-56
2021/09/29 09:46:29;;;;;;;18.70;14.68;;;;;;;;;;4448235;32;20327;-55
2021/09/29 09:49:06;;;;;;;30.45;21.77;;;;;;;;;;4447440;32;20343;-56
2021/09/29 09:51:44;;;;;;;20.17;16.52;;;;;;;;;;4448730;32;20224;-57
2021/09/29 09:54:11;;;;;;;23.85;18.87;;;;;;;;;;4448841;32;20232;-55
2021/09/29 09:56:37;;;;;;;19.08;16.00;;;;;;;;;;4449181;32;20342;-55
2021/09/29 09:59:07;;;;;;;21.23;15.52;;;;;;;;;;4448956;32;20291;-56
2021/09/29 10:01:33;;;;;;;23.70;16.85;;;;;;;;;;4448782;32;20307;-56
2021/09/29 10:04:08;;;;;;;16.62;13.45;;;;;;;;;;4447523;32;20192;-55
2021/09/29 10:06:34;;;;;;;19.23;12.07;;;;;;;;;;4449045;32;20338;-55
2021/09/29 10:09:05;;;;;;;16.08;12.93;;;;;;;;;;4448992;32;20287;-54
2021/09/29 10:11:34;;;;;;;13.95;11.25;;;;;;;;;;4448554;32;20709;-55
2021/09/29 10:14:24;;;;;;;15.77;12.60;;;;;;;;;;4448479;32;20203;-56
2021/09/29 10:23:07;;;;;;;21.37;14.43;;;;;;;;;;4447749;32;20269;-57
2021/09/29 10:28:18;;;;;;;14.32;11.70;;;;;;;;;;4447781;32;20211;-55
2021/09/29 10:31:46;;;;;;;17.52;12.37;;;;;;;;;;4447426;32;20260;-56
2021/09/29 10:34:26;;;;;;;15.48;11.82;;;;;;;;;;4439708;32;20283;-56
2021/09/29 11:06:49;;;;;;;12.52;9.80;;;;;;;;;;4431503;32;20308;-56
2021/09/29 12:11:39;;;;;;;14.48;11.05;;;;;;;;;;4431986;32;20663;-55
2021/09/29 12:14:21;;;;;;;11.90;9.65;;;;;;;;;;4432291;32;20345;-55
2021/09/29 12:16:49;;;;;;;15.35;11.52;;;;;;;;;;4432263;32;20232;-55
2021/09/29 12:19:42;;;;;;;12.30;10.00;;;;;;;;;;4432265;32;20726;-55
2021/09/29 12:22:28;;;;;;;12.02;10.63;;;;;;;;;;4431469;32;20665;-55
2021/09/29 12:25:05;;;;;;;14.35;10.40;;;;;;;;;;4430995;32;20383;-55
2021/09/29 12:27:41;;;;;;;30.20;9.90;;;;;;;;;;4432081;32;20270;-55
2021/09/29 12:30:21;;;;;;;12.37;10.60;;;;;;;;;;4431867;32;20193;-55
2021/09/29 12:35:55;;;;;;;15.15;10.25;;;;;;;;;;4413509;32;20656;-54
2021/09/29 12:38:32;;;;;;;11.02;9.77;;;;;;;;;;4432327;32;20283;-54
2021/09/29 12:40:58;;;;;;;11.48;9.38;;;;;;;;;;4432263;32;20227;-55
2021/09/29 12:43:25;;;;;;;11.23;8.80;;;;;;;;;;4432284;32;20221;-55
2021/09/29 12:45:50;;;;;;;15.70;9.23;;;;;;;;;;4431656;32;20200;-54
2021/09/29 12:48:19;;;;;;;14.20;10.55;;;;;;;;;;4433069;32;20470;-55
2021/09/29 12:58:23;;;;;;;12.37;10.40;;;;;;;;;;4450360;32;20235;-55
2021/09/29 13:00:48;;;;;;;11.60;9.93;;;;;;;;;;4449902;32;20206;-54
2021/09/29 13:03:14;;;;;;;11.43;8.63;;;;;;;;;;4449962;32;20338;-54
2021/09/29 13:05:39;;;;;;;16.55;11.27;;;;;;;;;;4450421;32;20279;-54
2021/09/29 13:08:05;;;;;;;14.80;10.43;;;;;;;;;;4447499;32;20328;-54
2021/09/29 13:10:31;;;;;;;11.48;10.07;;;;;;;;;;4441956;32;20326;-54
2021/09/29 13:12:57;;;;;;;11.12;9.85;;;;;;;;;;4442175;32;20368;-55
2021/09/29 13:15:24;;;;;;;11.48;9.20;;;;;;;;;;4434686;32;20295;-56
2021/09/29 13:17:52;;;;;;;11.43;10.23;;;;;;;;;;4445785;32;20240;-55
2021/09/29 13:20:20;;;;;;;11.85;9.18;;;;;;;;;;4449785;32;20255;-54
2021/09/29 13:22:52;;;;;;;11.80;9.40;;;;;;;;;;4449672;32;20236;-56
2021/09/29 13:25:57;;;;;;;13.27;10.55;;;;;;;;;;4445080;32;20201;-55
2021/09/29 13:36:38;;;;;;;13.00;9.13;;;;;;;;;;4449613;32;20238;-55
2021/09/29 13:39:08;;;;;;;9.90;8.90;;;;;;;;;;4449642;32;20236;-55
2021/09/29 13:41:34;;;;;;;10.57;8.95;;;;;;;;;;4449643;32;20275;-55
2021/09/29 13:44:00;;;;;;;12.85;9.10;;;;;;;;;;4434432;32;20228;-56
2021/09/29 13:46:25;;;;;;;16.62;10.98;;;;;;;;;;4438203;32;20204;-56
2021/09/29 13:48:52;;;;;;;15.68;10.65;;;;;;;;;;4449057;32;20266;-55
2021/09/29 13:51:18;;;;;;;12.23;8.25;;;;;;;;;;4449448;32;20263;-56
2021/09/29 13:53:44;;;;;;;11.48;9.52;;;;;;;;;;4448735;32;20232;-55
2021/09/29 13:56:11;;;;;;;20.48;11.27;;;;;;;;;;4449073;32;20220;-55
2021/09/29 14:14:11;;;;;;;10.35;9.35;;;;;;;;;;4448725;32;20307;-55
2021/09/29 14:30:52;;;;;;;16.55;9.93;;;;;;;;;;4433405;32;20289;-55
2021/09/29 14:35:46;;;;;;;13.77;10.18;;;;;;;;;;4448427;32;20601;-55
2021/09/29 14:38:11;;;;;;;15.02;10.07;;;;;;;;;;4448723;32;20232;-54
2021/09/29 14:40:37;;;;;;;13.07;9.57;;;;;;;;;;4448847;32;20340;-54
2021/09/29 14:43:03;;;;;;;14.30;9.63;;;;;;;;;;4448704;32;20315;-54
2021/09/29 14:45:29;;;;;;;12.70;10.70;;;;;;;;;;4447702;32;20212;-55
2021/09/29 14:47:54;;;;;;;14.60;10.88;;;;;;;;;;4447204;32;20307;-55
2021/09/29 14:50:26;;;;;;;11.35;9.77;;;;;;;;;;4448325;32;20608;-57
2021/09/29 14:52:57;;;;;;;13.57;10.20;;;;;;;;;;4448425;32;20237;-55
2021/09/29 14:55:24;;;;;;;11.52;10.13;;;;;;;;;;4448357;32;20506;-55
2021/09/29 14:57:49;;;;;;;13.88;10.20;;;;;;;;;;4448762;32;20314;-55
2021/09/29 15:00:15;;;;;;;14.25;10.57;;;;;;;;;;4448628;32;20407;-55
2021/09/29 15:02:41;;;;;;;13.82;9.68;;;;;;;;;;4447963;32;20560;-56
2021/09/29 15:05:06;;;;;;;13.27;10.32;;;;;;;;;;4448427;32;20310;-55
2021/09/29 15:07:32;;;;;;;15.00;10.70;;;;;;;;;;4447053;32;20228;-55
2021/09/29 15:09:58;;;;;;;16.00;11.12;;;;;;;;;;4448071;32;20276;-55
2021/09/29 15:12:24;;;;;;;17.08;11.45;;;;;;;;;;4447892;32;20636;-55
2021/09/29 15:17:22;;;;;;;14.65;11.38;;;;;;;;;;4437142;32;20328;-55
2021/09/29 15:25:39;;;;;;;14.98;11.25;;;;;;;;;;4447926;32;20219;-56
2021/09/29 15:46:55;;;;;;;12.43;9.25;;;;;;;;;;4447693;32;20321;-56
2021/09/29 15:52:44;;;;;;;14.82;10.25;;;;;;;;;;4448189;32;20589;-55
2021/09/29 15:54:52;;;;;;;12.88;9.93;;;;;;;;;;4441769;32;20302;-56
2021/09/29 15:57:46;;;;;;;17.20;9.82;;;;;;;;;;4446094;32;20416;-55
2021/09/29 16:01:01;;;;;;;16.87;10.80;;;;;;;;;;4446780;32;20208;-55
2021/09/29 16:32:10;;;;;;;15.77;9.50;;;;;;;;;;4450555;32;20230;-55
2021/09/29 16:34:45;;;;;;;14.10;8.35;;;;;;;;;;4435992;32;20201;-55
2021/09/29 16:37:11;;;;;;;11.65;9.18;;;;;;;;;;4451069;32;20196;-55
2021/09/29 16:39:36;;;;;;;11.80;9.57;;;;;;;;;;4451309;32;20290;-56
2021/09/29 16:42:02;;;;;;;15.05;9.15;;;;;;;;;;4450660;32;20200;-54
2021/09/29 16:44:28;;;;;;;11.88;9.48;;;;;;;;;;4450932;32;20230;-54
2021/09/29 16:46:55;;;;;;;17.17;11.10;;;;;;;;;;4450936;32;20620;-55
2021/09/29 16:49:25;;;;;;;16.67;9.15;;;;;;;;;;4449385;32;20266;-55
2021/09/29 16:52:39;;;;;;;17.45;9.73;;;;;;;;;;4450602;32;20383;-55
2021/09/29 16:54:40;;;;;;;16.42;9.88;;;;;;;;;;4446375;32;20268;-54
2021/09/29 16:57:12;;;;;;;15.88;9.80;;;;;;;;;;4450466;32;20311;-53
2021/09/29 17:00:06;;;;;;;12.70;7.85;;;;;;;;;;4450354;32;20213;-54
2021/09/29 17:02:32;;;;;;;17.10;8.10;;;;;;;;;;4449759;32;20647;-54
2021/09/29 17:04:57;;;;;;;12.02;8.52;;;;;;;;;;4450227;32;20300;-55
2021/09/29 17:07:23;;;;;;;9.88;7.15;;;;;;;;;;4450041;32;20258;-54
2021/09/29 17:09:49;;;;;;;11.65;8.80;;;;;;;;;;4449866;32;20307;-55
2021/09/29 17:12:15;;;;;;;11.80;7.82;;;;;;;;;;4448849;32;20422;-54
2021/09/29 17:14:41;;;;;;;13.38;9.23;;;;;;;;;;4448630;32;20330;-55
2021/09/29 17:17:06;;;;;;;11.73;8.35;;;;;;;;;;4449837;32;20617;-54
2021/09/29 17:19:32;;;;;;;13.25;7.55;;;;;;;;;;4449849;32;20370;-54
2021/09/29 17:21:59;;;;;;;16.40;8.10;;;;;;;;;;4449929;32;20244;-55
2021/09/29 17:24:29;;;;;;;10.82;7.18;;;;;;;;;;4450287;32;20325;-56
2021/09/29 17:26:55;;;;;;;11.93;8.30;;;;;;;;;;4449824;32;20702;-53
2021/09/29 17:29:22;;;;;;;15.43;8.80;;;;;;;;;;4450428;32;20323;-54
2021/09/29 17:32:06;;;;;;;10.27;7.57;;;;;;;;;;4449803;32;20246;-53
2021/09/29 17:35:26;;;;;;;11.43;7.55;;;;;;;;;;4434595;32;20215;-53
2021/09/29 17:53:31;;;;;;;13.52;8.18;;;;;;;;;;4448661;32;20658;-53
2021/09/29 17:55:57;;;;;;;12.75;8.75;;;;;;;;;;4449072;32;20212;-53
2021/09/29 17:58:23;;;;;;;12.45;8.60;;;;;;;;;;4450006;32;20248;-54
2021/09/29 18:00:50;;;;;;;19.90;10.80;;;;;;;;;;4449164;32;20644;-53
2021/09/29 18:08:34;;;;;;;19.17;8.90;;;;;;;;;;4449365;32;20289;-53
2021/09/29 18:10:59;;;;;;;13.68;8.98;;;;;;;;;;4449105;32;20235;-54
2021/09/29 18:13:25;;;;;;;13.60;9.32;;;;;;;;;;4449590;32;20224;-54
2021/09/29 18:15:51;;;;;;;15.23;10.75;;;;;;;;;;4449285;32;20311;-53
2021/09/29 18:18:18;;;;;;;14.95;10.48;;;;;;;;;;4449085;32;20316;-54
2021/09/29 18:20:44;;;;;;;13.75;10.10;;;;;;;;;;4448993;32;20227;-53
2021/09/29 18:23:09;;;;;;;28.65;13.25;;;;;;;;;;4448808;32;20251;-53
2021/09/29 18:25:37;;;;;;;17.87;10.73;;;;;;;;;;4448779;32;20276;-53
2021/09/29 18:28:04;;;;;;;18.60;10.38;;;;;;;;;;4448903;32;20595;-53
2021/09/29 18:30:30;;;;;;;18.42;11.80;;;;;;;;;;4449300;32;20285;-53
2021/09/29 18:32:58;;;;;;;17.77;9.65;;;;;;;;;;4448607;32;20232;-53
2021/09/29 18:35:30;;;;;;;20.37;10.65;;;;;;;;;;4448947;32;20232;-53
2021/09/29 18:37:58;;;;;;;19.60;11.38;;;;;;;;;;4449168;32;20383;-53
2021/09/29 18:40:23;;;;;;;21.73;11.45;;;;;;;;;;4449158;32;20271;-54
2021/09/29 18:42:49;;;;;;;18.17;10.25;;;;;;;;;;4448854;32;20242;-54
2021/09/29 18:45:16;;;;;;;13.18;9.93;;;;;;;;;;4448769;32;20323;-54
2021/09/29 18:47:42;;;;;;;14.87;10.45;;;;;;;;;;4447870;32;20304;-53
2021/09/29 18:50:09;;;;;;;15.15;10.68;;;;;;;;;;4448279;32;20268;-54
2021/09/29 18:52:35;;;;;;;18.98;13.70;;;;;;;;;;4448489;32;20220;-53
2021/09/29 18:55:45;;;;;;;33.83;16.30;;;;;;;;;;4448210;32;20280;-55
2021/09/29 19:08:51;;;;;;;19.83;9.45;;;;;;;;;;4459959;32;20285;-53
2021/09/29 19:11:16;;;;;;;23.50;9.63;;;;;;;;;;4463666;32;20262;-54